createdAt,value
2023-05-04T00:02:47.934Z,11.95
2023-05-04T00:08:13.899Z,11.83
2023-05-04T00:13:06.405Z,11.83
2023-05-04T00:18:06.304Z,11.83
2023-05-04T00:23:06.205Z,11.72
2023-05-04T00:28:06.117Z,11.62
2023-05-04T00:33:06.107Z,11.55
2023-05-04T00:38:06.012Z,11.44
2023-05-04T00:43:05.926Z,11.32
2023-05-04T00:48:05.887Z,11.29
2023-05-04T00:53:05.816Z,11.12
2023-05-04T00:58:05.733Z,10.94
2023-05-04T01:03:05.740Z,10.67
2023-05-04T01:08:05.593Z,10.42
2023-05-04T01:13:05.618Z,10.23
2023-05-04T01:18:05.535Z,10.09
2023-05-04T01:23:05.427Z,9.99
2023-05-04T01:28:05.364Z,9.82
2023-05-04T01:33:05.329Z,9.68
2023-05-04T01:38:05.195Z,9.54
2023-05-04T01:43:05.174Z,9.41
2023-05-04T01:48:05.084Z,9.36
2023-05-04T01:53:04.990Z,9.26
2023-05-04T01:58:04.936Z,9.13
2023-05-04T02:03:04.944Z,9.06
2023-05-04T02:08:04.812Z,9.02
2023-05-04T02:13:04.788Z,8.94
2023-05-04T02:18:04.701Z,8.84
2023-05-04T02:23:04.576Z,8.82
2023-05-04T02:28:04.557Z,8.85
2023-05-04T02:33:04.610Z,8.85
2023-05-04T02:38:04.382Z,8.74
2023-05-04T02:43:04.342Z,8.67
2023-05-04T02:48:04.295Z,8.61
2023-05-04T02:53:04.216Z,8.55
2023-05-04T02:58:04.136Z,8.52
2023-05-04T03:03:04.138Z,8.51
2023-05-04T03:08:04.000Z,8.46
2023-05-04T03:13:04.063Z,8.45
2023-05-04T03:18:03.892Z,8.38
2023-05-04T03:23:03.845Z,8.28
2023-05-04T03:28:03.788Z,8.15
2023-05-04T03:33:03.761Z,8.08
2023-05-04T03:38:03.641Z,8.01
2023-05-04T03:43:03.587Z,8.06
2023-05-04T03:48:03.495Z,8.12
2023-05-04T03:53:03.429Z,8.16
2023-05-04T03:58:03.362Z,8.12
2023-05-04T04:03:03.371Z,8.08
2023-05-04T04:08:03.239Z,8.09
2023-05-04T04:13:03.180Z,8.03
2023-05-04T04:18:17.668Z,8.00
2023-05-04T04:23:10.066Z,8.09
2023-05-04T04:28:10.006Z,8.09
2023-05-04T04:33:10.091Z,8.00
2023-05-04T04:38:09.895Z,8.00
2023-05-04T04:43:09.777Z,8.10
2023-05-04T04:48:09.795Z,8.24
2023-05-04T04:53:09.676Z,8.20
2023-05-04T04:58:09.613Z,8.33
2023-05-04T05:03:09.617Z,8.52
2023-05-04T05:08:09.472Z,8.84
2023-05-04T05:13:09.437Z,9.10
2023-05-04T05:18:09.512Z,9.37
2023-05-04T05:23:09.257Z,9.56
2023-05-04T05:28:09.193Z,9.65
2023-05-04T05:33:09.147Z,9.86
2023-05-04T05:38:09.112Z,10.01
2023-05-04T05:43:08.984Z,10.19
2023-05-04T05:48:08.982Z,10.33
2023-05-04T05:53:08.865Z,10.44
2023-05-04T05:58:08.821Z,10.53
2023-05-04T06:03:08.799Z,10.76
2023-05-04T06:08:08.683Z,10.92
2023-05-04T06:13:08.658Z,11.15
2023-05-04T06:18:08.614Z,12.57
2023-05-04T06:23:08.446Z,14.73
2023-05-04T06:28:08.421Z,17.30
2023-05-04T06:33:08.385Z,18.22
2023-05-04T06:38:08.642Z,17.89
2023-05-04T06:43:08.199Z,17.44
2023-05-04T06:48:08.206Z,17.51
2023-05-04T06:53:08.078Z,17.06
2023-05-04T06:58:08.036Z,17.22
2023-05-04T07:03:08.043Z,17.64
2023-05-04T07:08:07.938Z,17.34
2023-05-04T07:13:07.881Z,17.67
2023-05-04T07:18:07.803Z,17.20
2023-05-04T07:23:07.687Z,17.04
2023-05-04T07:28:07.649Z,16.97
2023-05-04T07:33:07.548Z,18.07
2023-05-04T07:38:07.538Z,19.02
2023-05-04T07:43:07.446Z,19.19
2023-05-04T07:48:07.408Z,20.29
2023-05-04T07:53:07.283Z,21.46
2023-05-04T07:58:07.274Z,21.70
2023-05-04T08:03:07.160Z,21.80
2023-05-04T08:08:07.297Z,21.33
2023-05-04T08:13:07.027Z,21.98
2023-05-04T08:18:07.001Z,23.02
2023-05-04T08:23:06.908Z,23.31
2023-05-04T08:28:06.823Z,23.58
2023-05-04T08:33:06.794Z,24.32
2023-05-04T08:38:06.715Z,24.73
2023-05-04T08:43:06.623Z,25.41
2023-05-04T08:48:06.578Z,26.34
2023-05-04T08:53:06.512Z,26.80
2023-05-04T08:58:06.535Z,27.68
2023-05-04T09:03:06.426Z,27.71
2023-05-04T09:08:06.382Z,28.63
2023-05-04T09:13:06.286Z,28.78
2023-05-04T09:18:06.297Z,28.47
2023-05-04T09:23:06.117Z,29.27
2023-05-04T09:28:06.082Z,29.68
2023-05-04T09:33:06.031Z,28.86
2023-05-04T09:38:05.968Z,28.89
2023-05-04T09:43:05.858Z,28.22
2023-05-04T09:48:05.871Z,27.98
2023-05-04T09:53:05.761Z,28.12
2023-05-04T09:58:05.681Z,27.80
2023-05-04T10:03:05.608Z,28.56
2023-05-04T10:08:05.560Z,28.47
2023-05-04T10:13:05.534Z,28.39
2023-05-04T10:18:05.425Z,27.92
2023-05-04T10:23:05.350Z,27.87
2023-05-04T10:28:05.291Z,26.93
2023-05-04T10:33:05.248Z,26.43
2023-05-04T10:38:05.173Z,27.14
2023-05-04T10:43:05.084Z,28.01
2023-05-04T10:48:05.178Z,28.54
2023-05-04T10:53:05.249Z,28.78
2023-05-04T10:58:04.890Z,29.39
2023-05-04T11:03:04.909Z,28.63
2023-05-04T11:08:04.755Z,28.59
2023-05-04T11:13:05.917Z,27.73
2023-05-04T11:18:04.687Z,28.64
2023-05-04T11:23:04.548Z,28.30
2023-05-04T11:28:04.513Z,28.96
2023-05-04T11:33:04.484Z,28.17
2023-05-04T11:38:04.373Z,28.56
2023-05-04T11:43:04.333Z,28.54
2023-05-04T11:48:04.294Z,28.79
2023-05-04T11:53:04.182Z,28.51
2023-05-04T11:58:04.098Z,28.48
2023-05-04T12:03:04.063Z,28.20
2023-05-04T12:08:04.021Z,28.04
2023-05-04T12:13:03.974Z,28.04
2023-05-04T12:18:03.905Z,27.90
2023-05-04T12:23:03.820Z,26.84
2023-05-04T12:28:03.768Z,27.26
2023-05-04T12:33:03.706Z,26.99
2023-05-04T12:38:03.594Z,27.71
2023-05-04T12:43:03.598Z,27.39
2023-05-04T12:48:03.579Z,27.39
2023-05-04T12:53:03.392Z,27.22
2023-05-04T12:58:03.332Z,26.52
2023-05-04T13:03:03.313Z,26.15
2023-05-04T13:08:03.207Z,26.55
2023-05-04T13:13:03.179Z,26.60
2023-05-04T13:18:03.211Z,26.31
2023-05-04T13:23:03.012Z,26.06
2023-05-04T13:28:02.947Z,25.60
2023-05-04T13:33:10.240Z,25.50
2023-05-04T13:38:03.862Z,25.62
2023-05-04T13:43:02.753Z,25.84
2023-05-04T13:48:02.735Z,25.78
2023-05-04T13:53:02.625Z,25.16
2023-05-04T13:58:02.566Z,25.28
2023-05-04T14:03:02.571Z,25.26
2023-05-04T14:08:02.431Z,25.23
2023-05-04T14:13:02.366Z,25.29
2023-05-04T14:18:03.459Z,24.95
2023-05-04T14:23:02.211Z,25.32
2023-05-04T14:28:02.219Z,25.66
2023-05-04T14:33:02.211Z,25.33
2023-05-04T14:38:02.012Z,25.32
2023-05-04T14:43:01.943Z,25.46
2023-05-04T14:48:01.938Z,25.77
2023-05-04T14:53:01.860Z,25.28
2023-05-04T14:58:01.793Z,25.44
2023-05-04T15:03:01.827Z,25.21
2023-05-04T15:08:01.733Z,25.16
2023-05-04T15:13:01.583Z,24.84
2023-05-04T15:18:01.707Z,24.69
2023-05-04T15:23:01.419Z,24.42
2023-05-04T15:28:01.433Z,24.36
2023-05-04T15:33:01.351Z,24.66
2023-05-04T15:38:01.254Z,24.66
2023-05-04T15:43:01.434Z,24.77
2023-05-04T15:48:01.303Z,24.80
2023-05-04T15:53:01.017Z,24.65
2023-05-04T15:58:01.094Z,24.77
2023-05-04T16:03:00.978Z,24.57
2023-05-04T16:08:00.990Z,24.73
2023-05-04T16:13:01.104Z,24.47
2023-05-04T16:18:00.782Z,24.30
2023-05-04T16:23:00.688Z,24.17
2023-05-04T16:28:00.588Z,24.05
2023-05-04T16:33:00.613Z,23.84
2023-05-04T16:38:00.461Z,23.93
2023-05-04T16:43:00.414Z,23.93
2023-05-04T16:48:00.374Z,24.03
2023-05-04T16:53:00.265Z,24.18
2023-05-04T16:58:00.176Z,24.16
2023-05-04T17:03:00.258Z,24.06
2023-05-04T17:08:00.102Z,24.10
2023-05-04T17:13:02.269Z,23.87
2023-05-04T17:17:59.991Z,23.71
2023-05-04T17:22:59.911Z,23.55
2023-05-04T17:27:59.803Z,23.39
2023-05-04T17:32:59.776Z,22.96
2023-05-04T17:37:59.659Z,22.72
2023-05-04T17:42:59.620Z,22.45
2023-05-04T17:47:59.579Z,22.28
2023-05-04T17:52:59.492Z,22.11
2023-05-04T17:57:59.401Z,22.00
2023-05-04T18:02:59.417Z,21.83
2023-05-04T18:07:59.274Z,21.66
2023-05-04T18:12:59.246Z,21.60
2023-05-04T18:17:59.164Z,21.52
2023-05-04T18:22:59.083Z,21.39
2023-05-04T18:27:59.021Z,21.29
2023-05-04T18:32:59.045Z,21.15
2023-05-04T18:37:58.882Z,21.05
2023-05-04T18:42:58.783Z,20.96
2023-05-04T18:47:58.773Z,20.85
2023-05-04T18:52:58.731Z,20.72
2023-05-04T18:57:58.643Z,20.60
2023-05-04T19:02:58.629Z,20.44
2023-05-04T19:07:58.528Z,20.29
2023-05-04T19:12:58.504Z,20.11
2023-05-04T19:17:58.404Z,20.06
2023-05-04T19:22:58.344Z,19.95
2023-05-04T19:27:58.689Z,19.89
2023-05-04T19:32:58.239Z,19.79
2023-05-04T19:37:58.137Z,19.67
2023-05-04T19:42:58.069Z,19.44
2023-05-04T19:47:58.079Z,19.33
2023-05-04T19:52:57.924Z,19.08
2023-05-04T19:57:57.842Z,19.00
2023-05-04T20:02:57.787Z,19.02
2023-05-04T20:07:57.697Z,19.15
2023-05-04T20:12:57.665Z,19.18
2023-05-04T20:17:57.594Z,19.07
2023-05-04T20:22:57.501Z,18.83
2023-05-04T20:27:57.411Z,18.40
2023-05-04T20:32:57.391Z,18.05
2023-05-04T20:37:57.304Z,17.80
2023-05-04T20:42:57.250Z,17.52
2023-05-04T20:47:57.193Z,17.22
2023-05-04T20:52:57.135Z,17.08
2023-05-04T20:57:57.005Z,17.02
2023-05-04T21:02:57.085Z,17.02
2023-05-04T21:07:56.938Z,17.02
2023-05-04T21:12:56.902Z,16.99
2023-05-04T21:17:56.763Z,16.79
2023-05-04T21:22:56.697Z,16.68
2023-05-04T21:27:56.627Z,16.64
2023-05-04T21:32:56.624Z,16.58
2023-05-04T21:37:56.476Z,16.53
2023-05-04T21:42:56.430Z,16.42
2023-05-04T21:47:56.438Z,16.35
2023-05-04T21:52:56.303Z,16.33
2023-05-04T21:57:56.212Z,16.38
2023-05-04T22:02:56.185Z,16.42
2023-05-04T22:07:56.077Z,16.46
2023-05-04T22:12:56.039Z,16.51
2023-05-04T22:17:55.976Z,16.50
2023-05-04T22:22:55.894Z,16.47
2023-05-04T22:27:55.818Z,16.46
2023-05-04T22:32:55.752Z,16.54
2023-05-04T22:37:55.687Z,16.61
2023-05-04T22:42:55.595Z,16.68
2023-05-04T22:47:55.595Z,16.71
2023-05-04T22:52:55.561Z,16.64
2023-05-04T22:57:55.421Z,16.58
2023-05-04T23:02:55.486Z,16.49
2023-05-04T23:07:55.288Z,16.41
2023-05-04T23:12:55.248Z,16.41
2023-05-04T23:17:55.152Z,16.35
2023-05-04T23:22:55.090Z,16.17
2023-05-04T23:27:55.012Z,15.98
2023-05-04T23:32:55.064Z,15.83
2023-05-04T23:37:54.906Z,15.80
2023-05-04T23:42:54.822Z,15.76
2023-05-04T23:47:54.830Z,15.72
2023-05-04T23:52:54.679Z,15.64
2023-05-04T23:57:54.630Z,15.55
